Time;durP1;ratioP1;P1;durP2;ratioP2;P2;SDS_P1;SDS_P2;PMS_P1;PMS_P2;Temp;Humidity;BMP_temperature;BMP_pressure;BME280_temperature;BME280_humidity;BME280_pressure;Samples;Min_cycle;Max_cycle;Signal;HPM_P1;HPM_P2
2024/04/07 00:00:40;;;;;;;38.28;35.47;;;;;;;13.83;100.00;101311.78;5089336;28;20117;-78
2024/04/07 00:03:08;;;;;;;35.55;32.95;;;;;;;13.89;100.00;101310.94;5103235;28;20842;-78
2024/04/07 00:05:41;;;;;;;35.83;33.22;;;;;;;14.02;100.00;101310.03;5108265;28;20124;-76
2024/04/07 00:08:09;;;;;;;34.42;31.83;;;;;;;13.97;100.00;101307.19;5094267;28;20047;-76
2024/04/07 00:10:36;;;;;;;35.35;32.85;;;;;;;13.98;100.00;101312.31;5110905;28;20546;-75
2024/04/07 00:13:03;;;;;;;35.80;33.20;;;;;;;13.93;100.00;101322.00;5112147;28;20047;-78
2024/04/07 00:15:29;;;;;;;32.53;30.13;;;;;;;13.88;100.00;101322.63;5107109;28;20059;-78
2024/04/07 00:17:56;;;;;;;31.52;29.25;;;;;;;13.42;100.00;101322.81;5108194;28;20048;-78
2024/04/07 00:20:22;;;;;;;32.28;29.92;;;;;;;13.75;100.00;101317.34;5094908;28;20074;-78
2024/04/07 00:22:49;;;;;;;36.33;33.72;;;;;;;13.81;100.00;101318.38;5102939;28;20130;-78
2024/04/07 00:25:17;;;;;;;36.50;33.80;;;;;;;13.83;100.00;101326.97;5112142;28;20450;-78
2024/04/07 00:27:44;;;;;;;33.45;30.50;;;;;;;13.81;100.00;101329.84;5092704;28;20051;-78
2024/04/07 00:30:11;;;;;;;32.85;30.45;;;;;;;13.99;100.00;101331.84;5088399;28;20062;-78
2024/04/07 00:32:40;;;;;;;36.42;33.72;;;;;;;13.97;100.00;101334.69;5110896;28;20426;-78
2024/04/07 00:35:14;;;;;;;32.58;30.13;;;;;;;14.05;100.00;101339.00;5102321;28;20048;-78
2024/04/07 00:37:41;;;;;;;35.72;33.13;;;;;;;13.94;100.00;101339.66;5106249;28;20054;-78
2024/04/07 00:40:22;;;;;;;30.25;28.05;;;;;;;13.83;100.00;101340.31;5108264;28;20048;-78
2024/04/07 00:42:56;;;;;;;31.80;29.50;;;;;;;13.81;100.00;101345.88;5099710;28;20043;-78
2024/04/07 00:45:23;;;;;;;35.90;33.40;;;;;;;13.56;100.00;101343.09;5096782;28;20059;-78
2024/04/07 00:48:07;;;;;;;33.95;31.15;;;;;;;13.65;100.00;101344.50;5096392;28;20484;-78
2024/04/07 00:50:35;;;;;;;33.28;30.88;;;;;;;13.71;100.00;101342.84;5093180;28;20105;-78
2024/04/07 00:53:06;;;;;;;29.63;27.52;;;;;;;13.79;100.00;101352.47;5112053;28;20065;-78
2024/04/07 00:55:34;;;;;;;32.38;30.17;;;;;;;13.90;100.00;101349.13;5111548;28;20131;-78
2024/04/07 00:58:15;;;;;;;35.33;32.83;;;;;;;13.73;100.00;101346.09;5097624;28;20131;-78
2024/04/07 01:00:42;;;;;;;31.40;29.10;;;;;;;13.54;100.00;101344.34;5103855;28;20503;-78
2024/04/07 01:03:10;;;;;;;32.10;29.80;;;;;;;13.55;100.00;101344.13;5096607;28;20058;-78
2024/04/07 01:05:40;;;;;;;31.50;29.20;;;;;;;13.60;100.00;101349.66;5097028;28;20052;-78
2024/04/07 01:08:08;;;;;;;32.15;29.85;;;;;;;13.38;100.00;101345.63;5108253;28;20051;-78
2024/04/07 01:10:36;;;;;;;31.58;29.33;;;;;;;13.40;100.00;101343.53;5097246;28;20059;-78
2024/04/07 01:13:04;;;;;;;31.15;28.95;;;;;;;13.39;100.00;101345.41;5089811;28;20055;-78
2024/04/07 01:15:33;;;;;;;28.10;26.20;;;;;;;13.35;100.00;101343.38;5090909;28;20051;-78
2024/04/07 01:18:00;;;;;;;28.83;26.83;;;;;;;12.79;100.00;101347.28;5079536;28;20100;-78
2024/04/07 01:20:32;;;;;;;29.63;27.52;;;;;;;12.87;100.00;101351.59;5094872;28;20048;-78
2024/04/07 01:22:59;;;;;;;31.25;29.05;;;;;;;13.14;100.00;101350.56;5103545;28;20687;-78
2024/04/07 01:25:28;;;;;;;29.58;27.48;;;;;;;13.26;100.00;101348.91;5108759;28;20486;-75
2024/04/07 01:27:56;;;;;;;27.45;25.55;;;;;;;13.10;100.00;101348.50;5104422;28;20039;-75
2024/04/07 01:30:24;;;;;;;26.25;24.55;;;;;;;13.00;100.00;101351.59;5103996;28;20050;-75
2024/04/07 01:32:51;;;;;;;28.80;26.80;;;;;;;13.26;100.00;101348.09;5102109;28;20048;-78
2024/04/07 01:35:17;;;;;;;28.63;26.65;;;;;;;13.31;100.00;101352.81;5093661;28;20116;-78
2024/04/07 01:37:55;;;;;;;27.40;25.60;;;;;;;12.59;100.00;101345.44;5091729;28;20051;-78
2024/04/07 01:40:22;;;;;;;28.90;27.00;;;;;;;12.75;100.00;101344.22;5096952;28;20048;-78
2024/04/07 01:42:53;;;;;;;27.20;25.40;;;;;;;12.21;100.00;101339.03;5095546;28;20714;-78
2024/04/07 01:45:26;;;;;;;26.73;24.83;;;;;;;12.60;100.00;101356.91;5105546;28;20047;-78
2024/04/07 01:47:53;;;;;;;27.40;25.60;;;;;;;12.67;100.00;101354.25;5095064;28;20047;-79
2024/04/07 01:50:21;;;;;;;27.05;25.25;;;;;;;12.39;100.00;101349.91;5089601;28;20043;-78
2024/04/07 01:52:48;;;;;;;28.27;26.40;;;;;;;12.24;100.00;101351.94;5084209;28;20044;-78
2024/04/07 01:55:15;;;;;;;27.38;25.48;;;;;;;12.83;100.00;101346.69;5103947;28;20087;-75
2024/04/07 01:57:42;;;;;;;25.15;23.42;;;;;;;12.99;100.00;101355.28;5095767;28;20060;-75
2024/04/07 02:00:11;;;;;;;26.75;24.95;;;;;;;12.84;100.00;101353.66;5099848;28;20074;-75
2024/04/07 02:02:44;;;;;;;24.67;22.98;;;;;;;12.88;100.00;101358.56;5105216;28;20083;-78
2024/04/07 02:05:10;;;;;;;23.35;21.65;;;;;;;12.73;100.00;101356.09;5110646;28;20051;-77
2024/04/07 02:07:37;;;;;;;26.02;24.23;;;;;;;12.58;100.00;101361.63;5102171;28;20048;-78
2024/04/07 02:10:04;;;;;;;28.10;26.10;;;;;;;12.40;100.00;101369.38;5098066;28;20122;-78
2024/04/07 02:12:34;;;;;;;26.25;24.35;;;;;;;12.48;100.00;101359.34;5091568;28;20500;-78
2024/04/07 02:15:00;;;;;;;27.15;25.35;;;;;;;12.37;100.00;101367.94;5104070;28;20430;-78
2024/04/07 02:17:44;;;;;;;27.20;25.40;;;;;;;12.30;100.00;101370.59;5094789;28;20047;-75
2024/04/07 02:20:10;;;;;;;26.83;25.02;;;;;;;12.23;100.00;101368.94;5091708;28;20458;-75
2024/04/07 02:22:37;;;;;;;26.88;25.08;;;;;;;11.80;100.00;101383.28;5100934;28;20138;-78
2024/04/07 02:25:04;;;;;;;25.23;23.52;;;;;;;12.05;100.00;101382.81;5093560;28;20051;-75
2024/04/07 02:27:31;;;;;;;24.58;22.88;;;;;;;12.01;100.00;101382.41;5105484;28;20055;-78
2024/04/07 02:29:57;;;;;;;25.52;23.73;;;;;;;12.12;100.00;101380.97;5088644;28;20044;-78
2024/04/07 02:32:24;;;;;;;23.02;21.45;;;;;;;11.98;100.00;101385.47;5085919;28;20578;-78
2024/04/07 02:34:52;;;;;;;24.48;22.77;;;;;;;11.87;100.00;101386.81;5096119;28;20151;-78
2024/04/07 02:37:19;;;;;;;24.67;22.98;;;;;;;11.82;100.00;101380.44;5100760;28;20136;-78
2024/04/07 02:39:45;;;;;;;25.23;23.50;;;;;;;11.73;100.00;101381.59;5091844;28;20515;-78
2024/04/07 02:42:12;;;;;;;24.90;23.20;;;;;;;11.79;100.00;101383.47;5102538;28;20134;-78
2024/04/07 02:50:10;;;;;;;24.45;22.85;;;;;;;11.62;100.00;101394.47;5093293;28;20050;-78
2024/04/07 02:52:36;;;;;;;22.05;20.55;;;;;;;11.72;100.00;101388.78;5099786;28;20148;-78
2024/04/07 02:55:06;;;;;;;23.95;22.25;;;;;;;11.08;100.00;101399.63;5093965;28;20047;-78
2024/04/07 02:57:32;;;;;;;22.80;21.25;;;;;;;11.29;100.00;101394.25;5104429;28;20094;-78
2024/04/07 02:59:59;;;;;;;22.80;21.30;;;;;;;11.32;100.00;101406.34;5095778;28;20055;-78
2024/04/07 03:02:27;;;;;;;24.42;22.83;;;;;;;11.43;100.00;101403.94;5110934;28;20062;-78
2024/04/07 03:04:54;;;;;;;23.73;22.13;;;;;;;11.18;100.00;101405.41;5100644;28;20044;-78
2024/04/07 03:07:25;;;;;;;24.73;23.02;;;;;;;11.24;100.00;101394.81;5098178;28;20126;-78
2024/04/07 03:09:55;;;;;;;22.13;20.73;;;;;;;11.04;100.00;101398.34;5099295;28;20473;-78
2024/04/07 03:12:28;;;;;;;23.27;21.67;;;;;;;11.21;100.00;101403.19;5089786;28;20610;-78
2024/04/07 03:14:56;;;;;;;22.45;20.95;;;;;;;11.27;100.00;101398.94;5106620;28;20499;-78
2024/04/07 03:17:24;;;;;;;21.30;19.90;;;;;;;10.79;100.00;101404.06;5090171;28;20051;-78
2024/04/07 03:19:51;;;;;;;22.52;21.02;;;;;;;11.05;100.00;101407.97;5102980;28;20487;-78
2024/04/07 03:22:31;;;;;;;21.63;20.23;;;;;;;10.51;100.00;101406.66;5100082;28;20109;-78
2024/04/07 03:25:01;;;;;;;24.13;22.63;;;;;;;10.92;100.00;101417.47;5096727;28;20055;-78
2024/04/07 03:27:30;;;;;;;20.10;18.80;;;;;;;10.69;100.00;101408.88;5093279;28;20148;-78
2024/04/07 03:30:04;;;;;;;22.95;21.45;;;;;;;10.64;100.00;101416.59;5105094;28;20051;-78
2024/04/07 03:32:30;;;;;;;21.95;20.45;;;;;;;10.73;100.00;101424.22;5102320;28;20051;-78
2024/04/07 03:34:58;;;;;;;22.40;20.80;;;;;;;10.73;100.00;101428.72;5095306;28;20048;-78
2024/04/07 03:37:25;;;;;;;21.08;19.67;;;;;;;10.56;100.00;101436.13;5106046;28;20109;-78
2024/04/07 03:39:57;;;;;;;20.40;19.02;;;;;;;10.64;100.00;101449.28;5082823;28;20097;-78
2024/04/07 03:42:30;;;;;;;19.45;18.10;;;;;;;10.80;100.00;101442.06;5095955;28;20783;-78
2024/04/07 03:45:09;;;;;;;20.48;19.15;;;;;;;10.31;100.00;101452.38;5090238;28;20105;-78
2024/04/07 03:47:36;;;;;;;22.10;20.70;;;;;;;10.40;100.00;101455.75;5105984;28;20062;-78
2024/04/07 03:50:03;;;;;;;18.67;17.48;;;;;;;10.55;100.00;101451.22;5109024;28;20044;-78
2024/04/07 03:52:32;;;;;;;18.13;16.92;;;;;;;10.59;100.00;101461.47;5102241;28;20040;-78
2024/04/07 03:55:08;;;;;;;19.08;17.80;;;;;;;10.55;100.00;101461.84;5107123;28;20054;-78
2024/04/07 03:57:35;;;;;;;19.17;17.98;;;;;;;10.19;100.00;101455.66;5096183;28;20427;-78
2024/04/07 04:00:03;;;;;;;20.05;18.85;;;;;;;10.24;100.00;101445.34;5097750;28;20052;-75
2024/04/07 04:02:32;;;;;;;19.90;18.60;;;;;;;10.31;100.00;101456.88;5101670;28;20043;-78
2024/04/07 04:04:59;;;;;;;20.40;19.13;;;;;;;10.36;100.00;101461.66;5112517;28;20060;-77
2024/04/07 04:07:28;;;;;;;20.55;19.25;;;;;;;10.31;100.00;101456.88;5106230;28;20078;-75
2024/04/07 04:09:58;;;;;;;18.70;17.60;;;;;;;10.30;100.00;101460.56;5107560;28;20052;-75
2024/04/07 04:12:28;;;;;;;20.10;18.90;;;;;;;10.18;100.00;101460.16;5104636;28;20146;-75
2024/04/07 04:14:55;;;;;;;20.08;18.77;;;;;;;10.49;100.00;101469.75;5107221;28;20569;-78
2024/04/07 04:17:22;;;;;;;18.25;17.23;;;;;;;10.47;100.00;101461.16;5105863;28;20062;-78
2024/04/07 04:19:50;;;;;;;16.70;15.80;;;;;;;10.58;100.00;101465.97;5099092;28;20892;-75
2024/04/07 04:22:30;;;;;;;20.42;19.02;;;;;;;10.64;100.00;101473.19;5103408;28;20047;-78
2024/04/07 04:24:56;;;;;;;18.90;17.45;;;;;;;10.68;100.00;101465.66;5094379;28;20044;-78
2024/04/07 04:27:23;;;;;;;19.55;18.05;;;;;;;10.80;100.00;101473.97;5113019;28;20062;-77
2024/04/07 04:30:00;;;;;;;19.00;17.70;;;;;;;10.77;100.00;101472.50;5095150;28;20055;-78
2024/04/07 04:32:34;;;;;;;18.38;17.17;;;;;;;10.84;100.00;101478.72;5097301;28;20062;-75
2024/04/07 04:35:00;;;;;;;20.35;19.05;;;;;;;10.86;100.00;101490.00;5112305;28;20055;-75
2024/04/07 04:37:27;;;;;;;20.17;18.88;;;;;;;11.00;100.00;101493.59;5111187;28;20506;-78
2024/04/07 04:39:53;;;;;;;20.67;19.38;;;;;;;10.67;100.00;101483.44;5099630;28;20401;-78
2024/04/07 04:42:24;;;;;;;20.65;19.38;;;;;;;11.00;100.00;101490.94;5111070;28;20051;-77
2024/04/07 04:44:58;;;;;;;19.20;18.02;;;;;;;11.05;100.00;101493.84;5110907;28;20044;-77
2024/04/07 04:47:39;;;;;;;18.77;17.67;;;;;;;10.87;100.00;101496.13;5104207;28;20055;-78
2024/04/07 04:50:10;;;;;;;18.75;17.65;;;;;;;11.10;100.00;101496.75;5104863;28;20117;-76
2024/04/07 04:52:38;;;;;;;20.83;19.63;;;;;;;11.18;100.00;101483.34;5091563;28;20068;-75
2024/04/07 04:55:25;;;;;;;20.88;19.52;;;;;;;11.20;100.00;101499.94;5092716;28;20056;-75
2024/04/07 04:57:52;;;;;;;21.88;20.55;;;;;;;11.10;100.00;101504.72;5096044;28;20059;-75
2024/04/07 05:00:18;;;;;;;21.50;20.20;;;;;;;10.68;100.00;101508.16;5082888;28;20052;-75
2024/04/07 05:02:55;;;;;;;22.95;21.63;;;;;;;11.32;100.00;101513.53;5105439;28;20055;-75
2024/04/07 05:05:21;;;;;;;23.20;21.80;;;;;;;11.36;100.00;101508.66;5101628;28;20480;-78
2024/04/07 05:07:49;;;;;;;21.13;19.83;;;;;;;11.28;100.00;101522.91;5101888;28;20458;-78
2024/04/07 05:10:15;;;;;;;21.45;20.15;;;;;;;10.94;100.00;101526.25;5102400;28;20510;-78
2024/04/07 05:12:42;;;;;;;20.42;19.13;;;;;;;11.32;100.00;101534.00;5092231;28;20131;-78
2024/04/07 05:15:08;;;;;;;19.27;18.08;;;;;;;11.20;100.00;101537.16;5098145;28;20711;-78
2024/04/07 05:17:46;;;;;;;19.20;18.00;;;;;;;11.41;100.00;101531.00;5100540;28;20142;-78
2024/04/07 05:20:14;;;;;;;18.17;17.17;;;;;;;11.55;100.00;101531.94;5105167;28;20044;-78
2024/04/07 05:22:41;;;;;;;17.95;16.90;;;;;;;11.53;100.00;101533.13;5108477;28;20136;-78
2024/04/07 05:25:08;;;;;;;15.70;14.80;;;;;;;11.63;100.00;101534.47;5103181;28;20043;-78
2024/04/07 05:27:35;;;;;;;17.38;16.25;;;;;;;11.83;100.00;101549.75;5105635;28;20052;-78
2024/04/07 05:30:01;;;;;;;17.38;16.35;;;;;;;11.91;100.00;101550.44;5108396;28;20040;-78
2024/04/07 05:32:30;;;;;;;16.55;15.65;;;;;;;11.78;100.00;101547.66;5105730;28;20047;-78
2024/04/07 05:34:57;;;;;;;17.27;16.27;;;;;;;12.13;100.00;101545.06;5098013;28;20059;-77
2024/04/07 05:37:29;;;;;;;19.10;18.00;;;;;;;12.18;100.00;101545.28;5096421;28;20051;-78
2024/04/07 05:40:08;;;;;;;18.42;17.33;;;;;;;12.55;100.00;101557.34;5099491;28;20054;-78
2024/04/07 05:42:35;;;;;;;19.23;18.02;;;;;;;12.55;100.00;101557.34;5103333;28;20047;-77
2024/04/07 05:45:01;;;;;;;17.88;16.88;;;;;;;12.57;100.00;101560.66;5105852;28;20056;-78
2024/04/07 05:47:28;;;;;;;18.08;16.98;;;;;;;12.78;100.00;101557.06;5107109;28;20135;-78
2024/04/07 05:49:54;;;;;;;19.08;17.88;;;;;;;12.77;100.00;101563.41;5098137;28;20044;-78
2024/04/07 05:52:21;;;;;;;20.10;18.90;;;;;;;12.92;100.00;101554.41;5102222;28;20543;-78
2024/04/07 05:54:49;;;;;;;22.00;20.70;;;;;;;13.35;100.00;101552.28;5104278;28;20063;-78
2024/04/07 05:57:16;;;;;;;21.40;19.63;;;;;;;13.09;100.00;101553.03;5098774;28;20159;-75
2024/04/07 05:59:42;;;;;;;21.83;20.42;;;;;;;13.38;100.00;101557.22;5093332;28;20097;-75
2024/04/07 06:02:11;;;;;;;22.88;21.38;;;;;;;13.38;100.00;101559.06;5092166;28;20055;-75
2024/04/07 06:04:45;;;;;;;26.05;24.38;;;;;;;13.64;100.00;101548.38;5092330;28;20068;-76
2024/04/07 06:07:12;;;;;;;25.13;23.48;;;;;;;13.56;100.00;101561.13;5069422;28;20079;-75
2024/04/07 06:09:59;;;;;;;24.98;23.38;;;;;;;13.86;100.00;101569.56;5088355;28;20051;-75
2024/04/07 06:12:36;;;;;;;27.67;25.77;;;;;;;13.59;100.00;101571.41;5105059;28;20055;-76
2024/04/07 06:15:04;;;;;;;31.05;29.05;;;;;;;13.95;100.00;101571.78;5102636;28;20058;-75
2024/04/07 06:17:34;;;;;;;29.77;27.77;;;;;;;13.87;100.00;101571.19;5100666;28;20058;-75
2024/04/07 06:20:00;;;;;;;29.60;27.60;;;;;;;14.26;100.00;101570.28;5108316;27;20055;-75
2024/04/07 06:22:27;;;;;;;28.75;26.85;;;;;;;14.19;100.00;101577.50;5106172;28;20060;-75
2024/04/07 06:24:53;;;;;;;30.13;28.02;;;;;;;14.62;100.00;101569.81;5100331;28;20048;-75
2024/04/07 06:27:22;;;;;;;27.92;25.95;;;;;;;14.39;100.00;101567.56;5092558;28;20526;-75
2024/04/07 06:29:58;;;;;;;31.23;29.02;;;;;;;14.54;100.00;101572.69;5101992;28;22344;-78
2024/04/07 06:32:26;;;;;;;31.88;29.67;;;;;;;14.73;100.00;101572.84;5106273;28;20048;-78
2024/04/07 06:34:52;;;;;;;37.28;34.67;;;;;;;15.07;100.00;101577.81;5096681;28;20052;-78
2024/04/07 06:37:23;;;;;;;34.00;31.60;;;;;;;15.22;100.00;101571.31;5105928;28;20054;-78
2024/04/07 06:39:49;;;;;;;35.03;32.53;;;;;;;15.10;100.00;101573.91;5104141;28;20047;-78
2024/04/07 06:42:33;;;;;;;38.58;35.78;;;;;;;15.70;100.00;101584.19;5099891;28;20052;-78
2024/04/07 06:44:59;;;;;;;36.78;34.17;;;;;;;15.87;100.00;101577.25;5099181;28;20052;-78
2024/04/07 06:47:40;;;;;;;40.85;37.85;;;;;;;16.22;100.00;101574.03;5107953;28;20077;-78
2024/04/07 06:50:13;;;;;;;46.85;43.33;;;;;;;16.65;100.00;101589.22;5092959;28;20048;-78
2024/04/07 06:52:48;;;;;;;50.70;46.95;;;;;;;16.64;100.00;101588.41;5093000;28;20055;-78
2024/04/07 06:55:16;;;;;;;48.17;44.58;;;;;;;16.85;100.00;101595.19;5102034;28;20040;-78
2024/04/07 06:57:55;;;;;;;54.92;50.92;;;;;;;17.20;100.00;101591.81;5093441;28;20550;-78
2024/04/07 07:00:23;;;;;;;52.25;48.45;;;;;;;16.90;100.00;101589.13;5088501;28;20048;-77
2024/04/07 07:02:50;;;;;;;47.85;44.15;;;;;;;17.18;100.00;101592.03;5094662;28;20048;-78
2024/04/07 07:05:17;;;;;;;50.60;46.75;;;;;;;18.03;100.00;101573.94;5103940;28;20047;-77
2024/04/07 07:07:44;;;;;;;46.42;41.25;;;;;;;18.31;100.00;101587.50;5094279;28;20063;-78
2024/04/07 07:10:10;;;;;;;52.17;48.17;;;;;;;18.41;100.00;101583.38;5069567;28;20055;-78
2024/04/07 07:12:37;;;;;;;44.58;40.92;;;;;;;18.96;100.00;101575.63;5096941;28;20055;-78
2024/04/07 07:15:11;;;;;;;43.97;40.38;;;;;;;19.25;100.00;101572.94;5096558;28;20052;-78
2024/04/07 07:17:38;;;;;;;43.92;40.38;;;;;;;19.63;100.00;101579.47;5091368;28;20086;-78
2024/04/07 07:20:05;;;;;;;42.33;39.10;;;;;;;19.84;100.00;101586.81;5098183;28;20416;-78
2024/04/07 07:22:32;;;;;;;39.38;36.47;;;;;;;19.61;100.00;101592.38;5090935;28;20582;-77
2024/04/07 07:25:08;;;;;;;41.30;38.20;;;;;;;19.66;100.00;101579.81;5104732;28;20461;-78
2024/04/07 07:27:39;;;;;;;41.05;37.85;;;;;;;19.60;100.00;101585.34;5100904;28;20052;-78
2024/04/07 07:30:07;;;;;;;42.70;39.60;;;;;;;19.84;100.00;101580.63;5097959;28;20062;-77
2024/04/07 07:32:49;;;;;;;42.90;39.60;;;;;;;19.88;100.00;101579.09;5093572;28;20439;-78
2024/04/07 07:35:15;;;;;;;41.22;38.15;;;;;;;20.21;100.00;101574.66;5099626;28;20044;-78
2024/04/07 07:37:49;;;;;;;40.90;37.90;;;;;;;20.23;100.00;101581.44;5096961;28;20051;-77
2024/04/07 07:40:16;;;;;;;39.75;36.75;;;;;;;20.32;100.00;101584.53;5101946;28;20051;-78
2024/04/07 07:42:43;;;;;;;41.20;38.10;;;;;;;20.56;100.00;101587.84;5109032;28;20055;-78
2024/04/07 07:45:09;;;;;;;44.40;41.20;;;;;;;20.57;100.00;101592.16;5104354;28;20051;-78
2024/04/07 07:47:36;;;;;;;40.50;37.65;;;;;;;20.24;100.00;101601.13;5103057;28;20054;-78
2024/04/07 07:50:04;;;;;;;38.03;35.13;;;;;;;20.06;100.00;101595.00;5091972;28;20055;-76
2024/04/07 07:52:42;;;;;;;38.80;36.00;;;;;;;20.54;100.00;101595.34;5089328;28;20122;-76
2024/04/07 07:55:08;;;;;;;36.28;33.67;;;;;;;20.42;100.00;101587.34;5098512;28;20534;-76
2024/04/07 07:57:35;;;;;;;35.55;33.15;;;;;;;20.95;100.00;101596.66;5106591;28;20068;-76
2024/04/07 08:00:02;;;;;;;35.55;33.15;;;;;;;21.03;100.00;101598.91;5093516;28;20040;-76
2024/04/07 08:02:36;;;;;;;38.13;35.50;;;;;;;20.75;100.00;101591.81;5105424;28;20040;-76
2024/04/07 08:05:13;;;;;;;34.58;32.28;;;;;;;20.61;100.00;101596.00;5096421;28;20430;-76
2024/04/07 08:07:43;;;;;;;32.17;29.98;;;;;;;20.60;100.00;101597.06;5090526;28;20051;-76
2024/04/07 08:10:09;;;;;;;32.50;30.30;;;;;;;20.44;100.00;101595.22;5088655;28;20051;-76
2024/04/07 08:12:38;;;;;;;36.30;33.80;;;;;;;20.82;100.00;101597.06;5096620;28;20135;-76
2024/04/07 08:15:05;;;;;;;35.67;33.17;;;;;;;21.07;100.00;101601.09;5106323;28;20047;-76
2024/04/07 08:17:34;;;;;;;34.20;31.90;;;;;;;20.88;100.00;101595.19;5089081;28;20047;-76
2024/04/07 08:20:01;;;;;;;31.85;29.55;;;;;;;21.03;100.00;101595.41;5088986;28;20073;-76
2024/04/07 08:22:38;;;;;;;31.90;29.70;;;;;;;21.40;100.00;101602.78;5092662;28;20427;-76
2024/04/07 08:25:08;;;;;;;31.58;29.27;;;;;;;21.48;100.00;101603.13;5104127;28;20044;-76
2024/04/07 08:27:47;;;;;;;32.05;29.75;;;;;;;21.19;100.00;101604.47;5100331;28;20054;-76
2024/04/07 08:30:14;;;;;;;33.47;31.17;;;;;;;21.64;100.00;101603.25;5106047;28;20060;-76
2024/04/07 08:32:41;;;;;;;36.13;33.53;;;;;;;21.33;100.00;101615.66;5103617;28;20058;-76
2024/04/07 08:35:07;;;;;;;34.00;31.60;;;;;;;21.53;100.00;101609.66;5105400;28;20116;-76
2024/04/07 08:37:34;;;;;;;32.72;30.42;;;;;;;21.62;100.00;101605.41;5106742;27;20055;-76
2024/04/07 08:40:08;;;;;;;34.50;32.10;;;;;;;21.65;100.00;101610.28;5095375;28;20135;-76
2024/04/07 08:42:38;;;;;;;34.08;31.67;;;;;;;21.41;100.00;101617.94;5102638;28;20177;-76
2024/04/07 08:45:07;;;;;;;31.80;29.60;;;;;;;21.59;100.00;101609.44;5096582;28;20048;-78
2024/04/07 08:47:36;;;;;;;38.00;34.97;;;;;;;21.78;100.00;101617.13;5105839;28;20051;-76
2024/04/07 08:50:13;;;;;;;34.63;32.22;;;;;;;20.99;100.00;101624.75;5108944;28;20044;-76
2024/04/07 08:52:42;;;;;;;52.55;49.50;;;;;;;21.10;100.00;101630.28;5090929;28;20052;-76
2024/04/07 08:55:09;;;;;;;54.88;51.58;;;;;;;21.05;100.00;101633.75;5107686;28;20773;-76
2024/04/07 08:57:38;;;;;;;52.88;49.78;;;;;;;21.52;100.00;101633.16;5097873;28;20560;-78
2024/04/07 09:00:06;;;;;;;43.75;41.05;;;;;;;21.47;100.00;101642.03;5106459;28;20050;-79
2024/04/07 09:02:43;;;;;;;41.33;38.33;;;;;;;21.77;100.00;101626.34;5094075;28;20064;-78
2024/04/07 09:05:11;;;;;;;33.15;30.98;;;;;;;21.86;100.00;101625.59;5098383;28;20055;-78
2024/04/07 09:07:45;;;;;;;37.67;35.10;;;;;;;22.05;100.00;101630.59;5094356;28;20059;-78
2024/04/07 09:10:12;;;;;;;37.00;34.50;;;;;;;22.12;100.00;101633.91;5098463;28;20048;-78
2024/04/07 09:12:39;;;;;;;32.47;30.08;;;;;;;21.81;100.00;101630.13;5105218;28;20043;-76
2024/04/07 09:15:12;;;;;;;34.53;32.13;;;;;;;21.71;100.00;101641.69;5104282;27;20055;-78
2024/04/07 09:17:40;;;;;;;31.25;29.02;;;;;;;21.95;100.00;101626.72;5102493;28;20437;-76
2024/04/07 09:20:17;;;;;;;35.40;33.00;;;;;;;22.25;100.00;101635.34;5104587;28;20048;-76
2024/04/07 09:22:44;;;;;;;35.65;33.25;;;;;;;23.09;100.00;101626.25;5102232;28;20133;-78
2024/04/07 09:25:13;;;;;;;40.95;38.15;;;;;;;22.95;100.00;101623.22;5098403;28;20139;-78
2024/04/07 09:27:41;;;;;;;41.42;38.63;;;;;;;23.34;100.00;101630.06;5091616;28;20047;-78
2024/04/07 09:30:08;;;;;;;32.15;29.75;;;;;;;23.17;100.00;101631.09;5098058;28;20056;-78
2024/04/07 09:32:39;;;;;;;32.35;30.00;;;;;;;22.27;100.00;101644.84;5111213;28;20043;-78
2024/04/07 09:35:07;;;;;;;37.10;34.50;;;;;;;22.37;100.00;101633.25;5105338;28;20055;-78
2024/04/07 09:37:42;;;;;;;33.78;31.08;;;;;;;22.52;100.00;101632.50;5098762;28;20058;-78
2024/04/07 09:40:20;;;;;;;33.13;30.52;;;;;;;22.35;100.00;101625.38;5103820;28;20048;-78
2024/04/07 09:42:50;;;;;;;34.60;32.20;;;;;;;22.58;100.00;101634.97;5092628;28;20050;-78
2024/04/07 09:45:17;;;;;;;32.58;30.08;;;;;;;22.36;100.00;101643.25;5099129;28;20051;-78
2024/04/07 09:47:57;;;;;;;31.27;28.98;;;;;;;21.90;100.00;101642.09;5108483;28;20051;-78
2024/04/07 09:50:34;;;;;;;30.42;28.13;;;;;;;21.79;100.00;101638.53;5110240;28;20055;-78
2024/04/07 09:53:10;;;;;;;30.42;28.02;;;;;;;21.85;100.00;101639.38;5103407;28;20050;-78
2024/04/07 09:55:40;;;;;;;33.78;31.42;;;;;;;21.75;100.00;101644.69;5111413;28;20058;-78
2024/04/07 09:58:09;;;;;;;36.28;33.67;;;;;;;22.06;100.00;101649.28;5106497;28;20070;-78
2024/04/07 10:00:59;;;;;;;34.67;32.17;;;;;;;22.79;100.00;101638.56;5105955;28;20502;-78
2024/04/07 10:03:25;;;;;;;30.08;27.85;;;;;;;21.88;100.00;101655.91;5104665;28;20404;-76
2024/04/07 10:05:52;;;;;;;29.20;27.00;;;;;;;21.86;100.00;101655.34;5106057;28;20055;-76
2024/04/07 10:08:19;;;;;;;33.20;30.80;;;;;;;21.78;100.00;101642.28;5095897;28;20059;-76
2024/04/07 10:10:48;;;;;;;32.45;30.05;;;;;;;22.40;100.00;101648.97;5096546;28;20443;-76
2024/04/07 10:13:22;;;;;;;40.63;37.92;;;;;;;22.32;100.00;101649.44;5090313;28;20497;-76
2024/04/07 10:15:49;;;;;;;31.67;29.27;;;;;;;22.41;100.00;101637.03;5099783;28;20397;-76
2024/04/07 10:18:18;;;;;;;37.30;34.80;;;;;;;22.53;100.00;101644.97;5102848;28;20048;-76
2024/04/07 10:20:54;;;;;;;30.52;28.33;;;;;;;22.53;100.00;101644.97;5111143;28;20519;-75
2024/04/07 10:23:21;;;;;;;37.53;34.92;;;;;;;22.51;100.00;101647.09;5107097;28;20154;-76
2024/04/07 10:26:03;;;;;;;32.72;30.45;;;;;;;23.16;100.00;101637.63;5106864;28;20499;-76
2024/04/07 10:28:45;;;;;;;34.35;31.95;;;;;;;22.94;100.00;101637.84;5099815;28;20507;-76
2024/04/07 10:31:12;;;;;;;35.03;32.53;;;;;;;23.35;100.00;101645.22;5100291;28;20047;-76
2024/04/07 10:33:49;;;;;;;37.95;35.30;;;;;;;23.58;100.00;101646.63;5096889;28;20052;-76
2024/04/07 10:36:17;;;;;;;36.55;34.05;;;;;;;23.90;100.00;101647.16;5102320;28;20498;-78
2024/04/07 10:38:47;;;;;;;36.40;33.85;;;;;;;24.70;100.00;101638.31;5096980;28;20059;-78
2024/04/07 10:41:22;;;;;;;37.95;35.25;;;;;;;23.96;100.00;101637.13;5093996;28;20292;-78
2024/04/07 10:43:52;;;;;;;35.40;32.80;;;;;;;23.82;100.00;101636.06;5100588;28;20043;-78
2024/04/07 10:46:45;;;;;;;38.20;35.50;;;;;;;23.91;100.00;101642.56;5107154;28;20109;-77
2024/04/07 10:49:11;;;;;;;39.13;36.42;;;;;;;23.18;100.00;101627.34;5104777;28;20167;-78
2024/04/07 10:51:48;;;;;;;35.55;33.05;;;;;;;23.84;100.00;101631.16;5105088;28;20051;-77
2024/04/07 10:54:23;;;;;;;33.22;30.83;;;;;;;23.36;100.00;101636.00;5102901;28;20055;-78
2024/04/07 10:57:04;;;;;;;40.40;37.60;;;;;;;23.13;100.00;101634.63;5091542;28;20109;-78
2024/04/07 10:59:39;;;;;;;38.92;36.22;;;;;;;23.71;100.00;101630.63;5103356;28;20127;-78
2024/04/07 11:02:23;;;;;;;37.67;35.17;;;;;;;24.15;100.00;101619.19;5092776;28;20044;-78
2024/04/07 11:04:49;;;;;;;41.28;38.47;;;;;;;24.07;100.00;101617.03;5091532;28;20056;-78
2024/04/07 11:07:20;;;;;;;41.13;38.33;;;;;;;23.94;100.00;101610.28;5100393;28;20050;-75
2024/04/07 11:09:48;;;;;;;34.78;32.28;;;;;;;23.84;100.00;101620.31;5100948;28;20139;-76
2024/04/07 11:12:17;;;;;;;35.22;32.72;;;;;;;23.83;100.00;101613.28;5091278;28;20058;-75
2024/04/07 11:14:44;;;;;;;41.67;38.72;;;;;;;23.96;100.00;101608.13;5099012;28;20047;-75
2024/04/07 11:17:11;;;;;;;47.75;44.65;;;;;;;23.40;100.00;101618.94;5090632;28;20048;-76
2024/04/07 11:19:38;;;;;;;40.60;37.70;;;;;;;23.92;100.00;101617.06;5089260;28;20048;-76